sensor_id;sensor_type;location;lat;lon;timestamp;P1;durP1;ratioP1;P2;durP2;ratioP2
48550;SDS011;34397;51.176;6.738;2023-02-08T00:02:31;11.13;;;6.82;;
48550;SDS011;34397;51.176;6.738;2023-02-08T00:05:05;13.32;;;7.35;;
48550;SDS011;34397;51.176;6.738;2023-02-08T00:07:37;14.63;;;8.07;;
48550;SDS011;34397;51.176;6.738;2023-02-08T00:10:09;13.10;;;7.28;;
48550;SDS011;34397;51.176;6.738;2023-02-08T00:12:41;15.60;;;7.70;;
48550;SDS011;34397;51.176;6.738;2023-02-08T00:15:13;12.90;;;7.53;;
48550;SDS011;34397;51.176;6.738;2023-02-08T00:17:45;11.32;;;7.22;;
48550;SDS011;34397;51.176;6.738;2023-02-08T00:20:18;13.95;;;7.10;;
48550;SDS011;34397;51.176;6.738;2023-02-08T00:22:50;14.10;;;7.30;;
48550;SDS011;34397;51.176;6.738;2023-02-08T00:25:22;14.00;;;7.13;;
48550;SDS011;34397;51.176;6.738;2023-02-08T00:27:54;14.93;;;7.10;;
48550;SDS011;34397;51.176;6.738;2023-02-08T00:30:26;11.70;;;7.30;;
48550;SDS011;34397;51.176;6.738;2023-02-08T00:32:57;14.30;;;7.68;;
48550;SDS011;34397;51.176;6.738;2023-02-08T00:38:03;14.03;;;7.27;;
48550;SDS011;34397;51.176;6.738;2023-02-08T00:40:35;13.50;;;7.57;;
48550;SDS011;34397;51.176;6.738;2023-02-08T00:43:07;15.90;;;7.78;;
48550;SDS011;34397;51.176;6.738;2023-02-08T00:45:38;14.90;;;8.00;;
48550;SDS011;34397;51.176;6.738;2023-02-08T00:48:10;13.27;;;7.60;;
48550;SDS011;34397;51.176;6.738;2023-02-08T00:50:43;13.70;;;7.70;;
48550;SDS011;34397;51.176;6.738;2023-02-08T00:53:15;14.20;;;7.67;;
48550;SDS011;34397;51.176;6.738;2023-02-08T00:55:49;13.27;;;7.43;;
48550;SDS011;34397;51.176;6.738;2023-02-08T00:58:21;12.13;;;7.17;;
48550;SDS011;34397;51.176;6.738;2023-02-08T01:03:25;13.40;;;7.27;;
48550;SDS011;34397;51.176;6.738;2023-02-08T01:06:00;15.43;;;7.93;;
48550;SDS011;34397;51.176;6.738;2023-02-08T01:08:33;13.23;;;7.10;;
48550;SDS011;34397;51.176;6.738;2023-02-08T01:11:05;11.00;;;6.65;;
48550;SDS011;34397;51.176;6.738;2023-02-08T01:13:40;14.17;;;7.77;;
48550;SDS011;34397;51.176;6.738;2023-02-08T01:16:13;12.57;;;7.55;;
48550;SDS011;34397;51.176;6.738;2023-02-08T01:18:47;14.10;;;7.60;;
48550;SDS011;34397;51.176;6.738;2023-02-08T01:21:23;10.70;;;6.80;;
48550;SDS011;34397;51.176;6.738;2023-02-08T01:23:59;17.63;;;7.10;;
48550;SDS011;34397;51.176;6.738;2023-02-08T01:26:32;15.37;;;7.40;;
48550;SDS011;34397;51.176;6.738;2023-02-08T01:29:04;12.60;;;7.05;;
48550;SDS011;34397;51.176;6.738;2023-02-08T01:31:37;12.50;;;7.13;;
48550;SDS011;34397;51.176;6.738;2023-02-08T01:34:11;12.30;;;7.27;;
48550;SDS011;34397;51.176;6.738;2023-02-08T01:36:45;12.02;;;6.97;;
48550;SDS011;34397;51.176;6.738;2023-02-08T01:39:17;13.73;;;7.17;;
48550;SDS011;34397;51.176;6.738;2023-02-08T01:41:49;13.15;;;6.72;;
48550;SDS011;34397;51.176;6.738;2023-02-08T01:48:00;11.10;;;7.30;;
48550;SDS011;34397;51.176;6.738;2023-02-08T01:50:39;13.87;;;7.30;;
48550;SDS011;34397;51.176;6.738;2023-02-08T01:53:16;12.30;;;6.60;;
48550;SDS011;34397;51.176;6.738;2023-02-08T01:55:50;11.80;;;6.97;;
48550;SDS011;34397;51.176;6.738;2023-02-08T01:58:25;14.63;;;7.10;;
48550;SDS011;34397;51.176;6.738;2023-02-08T02:00:59;14.30;;;7.87;;
48550;SDS011;34397;51.176;6.738;2023-02-08T02:06:05;15.90;;;7.90;;
48550;SDS011;34397;51.176;6.738;2023-02-08T02:08:43;14.27;;;7.70;;
48550;SDS011;34397;51.176;6.738;2023-02-08T02:11:23;15.95;;;7.68;;
48550;SDS011;34397;51.176;6.738;2023-02-08T02:13:55;12.70;;;7.28;;
48550;SDS011;34397;51.176;6.738;2023-02-08T02:18:59;13.23;;;7.63;;
48550;SDS011;34397;51.176;6.738;2023-02-08T02:21:35;14.52;;;7.78;;
48550;SDS011;34397;51.176;6.738;2023-02-08T02:30:49;14.83;;;7.70;;
48550;SDS011;34397;51.176;6.738;2023-02-08T02:34:05;13.90;;;7.73;;
48550;SDS011;34397;51.176;6.738;2023-02-08T02:36:43;13.93;;;7.17;;
48550;SDS011;34397;51.176;6.738;2023-02-08T02:39:22;13.60;;;8.10;;
48550;SDS011;34397;51.176;6.738;2023-02-08T02:42:05;13.30;;;7.27;;
48550;SDS011;34397;51.176;6.738;2023-02-08T02:45:05;18.27;;;7.73;;
48550;SDS011;34397;51.176;6.738;2023-02-08T02:47:44;14.10;;;7.43;;
48550;SDS011;34397;51.176;6.738;2023-02-08T02:50:27;15.30;;;7.23;;
48550;SDS011;34397;51.176;6.738;2023-02-08T02:53:05;14.27;;;7.73;;
48550;SDS011;34397;51.176;6.738;2023-02-08T02:55:44;15.30;;;7.87;;
48550;SDS011;34397;51.176;6.738;2023-02-08T02:58:21;18.63;;;8.63;;
48550;SDS011;34397;51.176;6.738;2023-02-08T03:00:56;16.23;;;7.80;;
48550;SDS011;34397;51.176;6.738;2023-02-08T03:03:30;13.23;;;7.70;;
48550;SDS011;34397;51.176;6.738;2023-02-08T03:06:06;16.97;;;8.33;;
48550;SDS011;34397;51.176;6.738;2023-02-08T03:09:02;16.30;;;8.10;;
48550;SDS011;34397;51.176;6.738;2023-02-08T03:11:50;16.07;;;8.30;;
48550;SDS011;34397;51.176;6.738;2023-02-08T03:14:33;14.90;;;8.07;;
48550;SDS011;34397;51.176;6.738;2023-02-08T03:17:17;15.10;;;8.07;;
48550;SDS011;34397;51.176;6.738;2023-02-08T03:20:06;15.93;;;7.80;;
48550;SDS011;34397;51.176;6.738;2023-02-08T03:22:44;11.97;;;7.60;;
48550;SDS011;34397;51.176;6.738;2023-02-08T03:25:31;13.73;;;7.73;;
48550;SDS011;34397;51.176;6.738;2023-02-08T03:28:11;15.40;;;7.17;;
48550;SDS011;34397;51.176;6.738;2023-02-08T03:30:53;14.93;;;7.43;;
48550;SDS011;34397;51.176;6.738;2023-02-08T03:33:33;16.23;;;8.05;;
48550;SDS011;34397;51.176;6.738;2023-02-08T03:36:13;17.10;;;7.27;;
48550;SDS011;34397;51.176;6.738;2023-02-08T03:38:53;12.53;;;7.50;;
48550;SDS011;34397;51.176;6.738;2023-02-08T03:41:27;12.83;;;7.57;;
48550;SDS011;34397;51.176;6.738;2023-02-08T03:44:03;15.10;;;7.80;;
48550;SDS011;34397;51.176;6.738;2023-02-08T03:46:42;13.90;;;8.00;;
48550;SDS011;34397;51.176;6.738;2023-02-08T03:49:21;13.77;;;8.10;;
48550;SDS011;34397;51.176;6.738;2023-02-08T03:51:58;14.00;;;7.60;;
48550;SDS011;34397;51.176;6.738;2023-02-08T03:54:38;13.73;;;7.70;;
48550;SDS011;34397;51.176;6.738;2023-02-08T03:57:16;16.97;;;8.30;;
48550;SDS011;34397;51.176;6.738;2023-02-08T03:59:53;13.17;;;7.50;;
48550;SDS011;34397;51.176;6.738;2023-02-08T04:02:29;17.70;;;8.13;;
48550;SDS011;34397;51.176;6.738;2023-02-08T04:05:05;12.90;;;7.60;;
48550;SDS011;34397;51.176;6.738;2023-02-08T04:07:38;13.90;;;7.70;;
48550;SDS011;34397;51.176;6.738;2023-02-08T04:10:12;12.30;;;7.25;;
48550;SDS011;34397;51.176;6.738;2023-02-08T04:12:44;13.67;;;7.60;;
48550;SDS011;34397;51.176;6.738;2023-02-08T04:15:17;13.03;;;7.60;;
48550;SDS011;34397;51.176;6.738;2023-02-08T04:17:50;14.90;;;8.10;;
48550;SDS011;34397;51.176;6.738;2023-02-08T04:20:22;13.43;;;7.72;;
48550;SDS011;34397;51.176;6.738;2023-02-08T04:22:54;13.50;;;7.75;;
48550;SDS011;34397;51.176;6.738;2023-02-08T04:25:27;14.68;;;7.35;;
48550;SDS011;34397;51.176;6.738;2023-02-08T04:27:59;15.77;;;7.07;;
48550;SDS011;34397;51.176;6.738;2023-02-08T04:30:31;14.65;;;7.88;;
48550;SDS011;34397;51.176;6.738;2023-02-08T04:33:03;14.10;;;7.50;;
48550;SDS011;34397;51.176;6.738;2023-02-08T04:35:34;17.55;;;7.95;;
48550;SDS011;34397;51.176;6.738;2023-02-08T04:38:06;13.30;;;7.50;;
48550;SDS011;34397;51.176;6.738;2023-02-08T04:40:40;12.07;;;7.27;;
48550;SDS011;34397;51.176;6.738;2023-02-08T04:43:12;12.73;;;7.23;;
48550;SDS011;34397;51.176;6.738;2023-02-08T04:45:44;16.42;;;8.10;;
48550;SDS011;34397;51.176;6.738;2023-02-08T04:48:16;13.68;;;8.02;;
48550;SDS011;34397;51.176;6.738;2023-02-08T04:50:48;17.15;;;8.07;;
48550;SDS011;34397;51.176;6.738;2023-02-08T04:53:20;13.20;;;7.55;;
48550;SDS011;34397;51.176;6.738;2023-02-08T04:55:53;13.13;;;7.25;;
48550;SDS011;34397;51.176;6.738;2023-02-08T04:58:24;15.10;;;8.03;;
48550;SDS011;34397;51.176;6.738;2023-02-08T05:00:56;15.35;;;7.93;;
48550;SDS011;34397;51.176;6.738;2023-02-08T05:03:28;15.15;;;8.20;;
48550;SDS011;34397;51.176;6.738;2023-02-08T05:06:00;15.43;;;7.35;;
48550;SDS011;34397;51.176;6.738;2023-02-08T05:08:32;15.23;;;7.95;;
48550;SDS011;34397;51.176;6.738;2023-02-08T05:11:05;14.10;;;8.45;;
48550;SDS011;34397;51.176;6.738;2023-02-08T05:13:37;15.03;;;8.00;;
48550;SDS011;34397;51.176;6.738;2023-02-08T05:16:09;18.17;;;8.00;;
48550;SDS011;34397;51.176;6.738;2023-02-08T05:18:41;13.98;;;8.05;;
48550;SDS011;34397;51.176;6.738;2023-02-08T05:21:13;19.63;;;8.02;;
48550;SDS011;34397;51.176;6.738;2023-02-08T05:23:45;13.88;;;7.90;;
48550;SDS011;34397;51.176;6.738;2023-02-08T05:26:18;14.63;;;7.47;;
48550;SDS011;34397;51.176;6.738;2023-02-08T05:28:50;14.57;;;8.23;;
48550;SDS011;34397;51.176;6.738;2023-02-08T05:31:22;13.55;;;7.68;;
48550;SDS011;34397;51.176;6.738;2023-02-08T05:33:55;16.10;;;7.87;;
48550;SDS011;34397;51.176;6.738;2023-02-08T05:36:27;12.00;;;7.47;;
48550;SDS011;34397;51.176;6.738;2023-02-08T05:38:59;14.80;;;7.75;;
48550;SDS011;34397;51.176;6.738;2023-02-08T05:41:32;14.65;;;7.53;;
48550;SDS011;34397;51.176;6.738;2023-02-08T05:44:04;16.37;;;8.20;;
48550;SDS011;34397;51.176;6.738;2023-02-08T05:46:36;13.48;;;7.72;;
48550;SDS011;34397;51.176;6.738;2023-02-08T05:49:07;17.25;;;7.53;;
48550;SDS011;34397;51.176;6.738;2023-02-08T05:51:39;16.35;;;7.90;;
48550;SDS011;34397;51.176;6.738;2023-02-08T05:54:11;17.23;;;8.23;;
48550;SDS011;34397;51.176;6.738;2023-02-08T05:56:44;16.30;;;7.72;;
48550;SDS011;34397;51.176;6.738;2023-02-08T05:59:16;17.83;;;8.27;;
48550;SDS011;34397;51.176;6.738;2023-02-08T06:01:48;15.05;;;8.20;;
48550;SDS011;34397;51.176;6.738;2023-02-08T06:04:19;15.40;;;7.93;;
48550;SDS011;34397;51.176;6.738;2023-02-08T06:06:51;16.20;;;8.57;;
48550;SDS011;34397;51.176;6.738;2023-02-08T06:09:23;16.73;;;8.30;;
48550;SDS011;34397;51.176;6.738;2023-02-08T06:11:56;16.65;;;8.18;;
48550;SDS011;34397;51.176;6.738;2023-02-08T06:14:28;15.60;;;7.73;;
48550;SDS011;34397;51.176;6.738;2023-02-08T06:17:00;15.35;;;8.13;;
48550;SDS011;34397;51.176;6.738;2023-02-08T06:19:32;14.43;;;7.47;;
48550;SDS011;34397;51.176;6.738;2023-02-08T06:22:03;17.77;;;8.68;;
48550;SDS011;34397;51.176;6.738;2023-02-08T06:24:35;14.27;;;8.00;;
48550;SDS011;34397;51.176;6.738;2023-02-08T06:27:08;17.25;;;8.05;;
48550;SDS011;34397;51.176;6.738;2023-02-08T06:29:40;16.63;;;8.77;;
48550;SDS011;34397;51.176;6.738;2023-02-08T06:32:12;14.23;;;8.07;;
48550;SDS011;34397;51.176;6.738;2023-02-08T06:34:44;15.52;;;8.05;;
48550;SDS011;34397;51.176;6.738;2023-02-08T06:37:17;16.83;;;8.47;;
48550;SDS011;34397;51.176;6.738;2023-02-08T06:39:49;13.63;;;7.75;;
48550;SDS011;34397;51.176;6.738;2023-02-08T06:42:22;13.48;;;7.93;;
48550;SDS011;34397;51.176;6.738;2023-02-08T06:44:55;16.17;;;7.90;;
48550;SDS011;34397;51.176;6.738;2023-02-08T06:49:59;16.47;;;7.67;;
48550;SDS011;34397;51.176;6.738;2023-02-08T06:52:31;16.02;;;8.23;;
48550;SDS011;34397;51.176;6.738;2023-02-08T06:55:03;14.55;;;8.00;;
48550;SDS011;34397;51.176;6.738;2023-02-08T06:57:37;16.33;;;8.27;;
48550;SDS011;34397;51.176;6.738;2023-02-08T07:00:09;15.47;;;7.77;;
48550;SDS011;34397;51.176;6.738;2023-02-08T07:02:43;15.00;;;8.13;;
48550;SDS011;34397;51.176;6.738;2023-02-08T07:05:16;19.27;;;8.97;;
48550;SDS011;34397;51.176;6.738;2023-02-08T07:07:48;14.55;;;8.27;;
48550;SDS011;34397;51.176;6.738;2023-02-08T07:10:20;19.13;;;8.52;;
48550;SDS011;34397;51.176;6.738;2023-02-08T07:12:53;18.38;;;8.88;;
48550;SDS011;34397;51.176;6.738;2023-02-08T07:15:25;14.70;;;8.33;;
48550;SDS011;34397;51.176;6.738;2023-02-08T07:17:57;16.42;;;9.00;;
48550;SDS011;34397;51.176;6.738;2023-02-08T07:20:29;19.05;;;9.23;;
48550;SDS011;34397;51.176;6.738;2023-02-08T07:23:00;17.05;;;9.07;;
48550;SDS011;34397;51.176;6.738;2023-02-08T07:25:32;17.02;;;8.57;;
48550;SDS011;34397;51.176;6.738;2023-02-08T07:28:05;17.50;;;9.00;;
48550;SDS011;34397;51.176;6.738;2023-02-08T07:30:37;16.00;;;8.83;;
48550;SDS011;34397;51.176;6.738;2023-02-08T07:33:09;16.75;;;8.15;;
48550;SDS011;34397;51.176;6.738;2023-02-08T07:35:41;14.70;;;8.43;;
48550;SDS011;34397;51.176;6.738;2023-02-08T07:38:13;16.75;;;8.80;;
48550;SDS011;34397;51.176;6.738;2023-02-08T07:40:45;16.20;;;8.55;;
48550;SDS011;34397;51.176;6.738;2023-02-08T07:43:18;15.60;;;7.97;;
48550;SDS011;34397;51.176;6.738;2023-02-08T07:45:50;18.43;;;8.73;;
48550;SDS011;34397;51.176;6.738;2023-02-08T07:48:21;16.75;;;8.77;;
48550;SDS011;34397;51.176;6.738;2023-02-08T07:50:53;22.92;;;9.13;;
48550;SDS011;34397;51.176;6.738;2023-02-08T07:53:25;20.95;;;9.65;;
48550;SDS011;34397;51.176;6.738;2023-02-08T07:55:57;25.08;;;9.10;;
48550;SDS011;34397;51.176;6.738;2023-02-08T07:58:30;16.52;;;8.27;;
48550;SDS011;34397;51.176;6.738;2023-02-08T08:01:02;15.40;;;7.67;;
48550;SDS011;34397;51.176;6.738;2023-02-08T08:06:06;15.83;;;7.77;;
48550;SDS011;34397;51.176;6.738;2023-02-08T08:08:38;16.25;;;8.05;;
48550;SDS011;34397;51.176;6.738;2023-02-08T08:11:10;16.40;;;8.77;;
48550;SDS011;34397;51.176;6.738;2023-02-08T08:13:43;18.15;;;7.80;;
48550;SDS011;34397;51.176;6.738;2023-02-08T08:16:15;14.10;;;7.30;;
48550;SDS011;34397;51.176;6.738;2023-02-08T08:18:48;16.30;;;7.70;;
48550;SDS011;34397;51.176;6.738;2023-02-08T08:23:52;14.20;;;7.23;;
48550;SDS011;34397;51.176;6.738;2023-02-08T08:26:24;13.82;;;7.20;;
48550;SDS011;34397;51.176;6.738;2023-02-08T08:28:57;17.42;;;7.25;;
48550;SDS011;34397;51.176;6.738;2023-02-08T08:31:29;16.17;;;8.40;;
48550;SDS011;34397;51.176;6.738;2023-02-08T08:34:02;13.47;;;7.27;;
48550;SDS011;34397;51.176;6.738;2023-02-08T08:36:34;15.63;;;7.90;;
48550;SDS011;34397;51.176;6.738;2023-02-08T08:39:05;16.17;;;7.65;;
48550;SDS011;34397;51.176;6.738;2023-02-08T08:41:37;14.00;;;7.55;;
48550;SDS011;34397;51.176;6.738;2023-02-08T08:44:10;13.93;;;6.95;;
48550;SDS011;34397;51.176;6.738;2023-02-08T08:46:42;15.57;;;7.30;;
48550;SDS011;34397;51.176;6.738;2023-02-08T08:49:14;15.38;;;7.07;;
48550;SDS011;34397;51.176;6.738;2023-02-08T08:51:46;13.88;;;7.63;;
48550;SDS011;34397;51.176;6.738;2023-02-08T08:54:18;12.45;;;7.13;;
48550;SDS011;34397;51.176;6.738;2023-02-08T08:56:51;16.60;;;7.27;;
48550;SDS011;34397;51.176;6.738;2023-02-08T08:59:24;14.30;;;7.28;;
48550;SDS011;34397;51.176;6.738;2023-02-08T09:01:57;15.07;;;6.80;;
48550;SDS011;34397;51.176;6.738;2023-02-08T09:04:28;15.48;;;6.78;;
48550;SDS011;34397;51.176;6.738;2023-02-08T09:07:00;21.45;;;8.55;;
48550;SDS011;34397;51.176;6.738;2023-02-08T09:09:32;13.43;;;6.78;;
48550;SDS011;34397;51.176;6.738;2023-02-08T09:14:38;13.25;;;6.80;;
48550;SDS011;34397;51.176;6.738;2023-02-08T09:17:10;12.90;;;6.90;;
48550;SDS011;34397;51.176;6.738;2023-02-08T09:19:42;16.90;;;7.43;;
48550;SDS011;34397;51.176;6.738;2023-02-08T09:22:14;13.73;;;6.82;;
48550;SDS011;34397;51.176;6.738;2023-02-08T09:24:46;13.80;;;7.22;;
48550;SDS011;34397;51.176;6.738;2023-02-08T09:27:18;12.90;;;7.18;;
48550;SDS011;34397;51.176;6.738;2023-02-08T09:29:51;15.75;;;6.93;;
48550;SDS011;34397;51.176;6.738;2023-02-08T09:32:22;15.80;;;7.53;;
48550;SDS011;34397;51.176;6.738;2023-02-08T09:34:54;13.55;;;6.78;;
48550;SDS011;34397;51.176;6.738;2023-02-08T09:39:58;13.70;;;7.03;;
48550;SDS011;34397;51.176;6.738;2023-02-08T09:42:33;14.45;;;6.88;;
48550;SDS011;34397;51.176;6.738;2023-02-08T09:45:17;11.57;;;6.23;;
48550;SDS011;34397;51.176;6.738;2023-02-08T09:48:02;12.67;;;6.87;;
48550;SDS011;34397;51.176;6.738;2023-02-08T09:50:48;12.57;;;6.17;;
48550;SDS011;34397;51.176;6.738;2023-02-08T09:53:24;12.50;;;6.30;;
48550;SDS011;34397;51.176;6.738;2023-02-08T09:56:01;13.27;;;6.30;;
48550;SDS011;34397;51.176;6.738;2023-02-08T09:58:36;10.03;;;5.80;;
48550;SDS011;34397;51.176;6.738;2023-02-08T10:01:14;13.23;;;5.90;;
48550;SDS011;34397;51.176;6.738;2023-02-08T10:03:51;11.87;;;6.17;;
48550;SDS011;34397;51.176;6.738;2023-02-08T10:06:26;11.07;;;5.93;;
48550;SDS011;34397;51.176;6.738;2023-02-08T10:09:01;13.37;;;5.60;;
48550;SDS011;34397;51.176;6.738;2023-02-08T10:11:41;11.43;;;5.97;;
48550;SDS011;34397;51.176;6.738;2023-02-08T10:14:29;10.27;;;5.37;;
48550;SDS011;34397;51.176;6.738;2023-02-08T10:17:31;10.33;;;5.37;;
48550;SDS011;34397;51.176;6.738;2023-02-08T10:20:18;13.07;;;4.70;;
48550;SDS011;34397;51.176;6.738;2023-02-08T10:23:04;9.53;;;5.30;;
48550;SDS011;34397;51.176;6.738;2023-02-08T10:25:57;10.50;;;5.30;;
48550;SDS011;34397;51.176;6.738;2023-02-08T10:31:31;10.87;;;5.13;;
48550;SDS011;34397;51.176;6.738;2023-02-08T10:34:24;8.63;;;4.40;;
48550;SDS011;34397;51.176;6.738;2023-02-08T10:37:08;9.47;;;4.40;;
48550;SDS011;34397;51.176;6.738;2023-02-08T10:39:45;8.30;;;4.67;;
48550;SDS011;34397;51.176;6.738;2023-02-08T10:42:20;8.20;;;5.00;;
48550;SDS011;34397;51.176;6.738;2023-02-08T10:44:56;8.27;;;4.47;;
48550;SDS011;34397;51.176;6.738;2023-02-08T10:47:38;9.47;;;4.97;;
48550;SDS011;34397;51.176;6.738;2023-02-08T10:50:19;10.07;;;4.60;;
48550;SDS011;34397;51.176;6.738;2023-02-08T10:52:58;11.05;;;5.50;;
48550;SDS011;34397;51.176;6.738;2023-02-08T10:55:30;8.80;;;4.65;;
48550;SDS011;34397;51.176;6.738;2023-02-08T10:58:05;11.82;;;4.38;;
48550;SDS011;34397;51.176;6.738;2023-02-08T11:00:37;7.15;;;3.58;;
48550;SDS011;34397;51.176;6.738;2023-02-08T11:03:14;7.25;;;3.42;;
48550;SDS011;34397;51.176;6.738;2023-02-08T11:05:52;7.07;;;4.43;;
48550;SDS011;34397;51.176;6.738;2023-02-08T11:08:25;5.72;;;3.65;;
48550;SDS011;34397;51.176;6.738;2023-02-08T11:10:58;5.40;;;3.60;;
48550;SDS011;34397;51.176;6.738;2023-02-08T11:13:34;11.10;;;4.10;;
48550;SDS011;34397;51.176;6.738;2023-02-08T11:16:09;5.72;;;3.75;;
48550;SDS011;34397;51.176;6.738;2023-02-08T11:18:46;6.45;;;3.45;;
48550;SDS011;34397;51.176;6.738;2023-02-08T11:21:22;6.25;;;3.67;;
48550;SDS011;34397;51.176;6.738;2023-02-08T11:23:59;6.72;;;3.72;;
48550;SDS011;34397;51.176;6.738;2023-02-08T11:26:34;5.28;;;3.78;;
48550;SDS011;34397;51.176;6.738;2023-02-08T11:29:11;6.47;;;3.40;;
48550;SDS011;34397;51.176;6.738;2023-02-08T11:31:55;5.95;;;3.80;;
48550;SDS011;34397;51.176;6.738;2023-02-08T11:34:32;5.53;;;3.53;;
48550;SDS011;34397;51.176;6.738;2023-02-08T11:37:13;6.32;;;3.67;;
48550;SDS011;34397;51.176;6.738;2023-02-08T11:39:49;4.60;;;3.50;;
48550;SDS011;34397;51.176;6.738;2023-02-08T11:42:24;9.10;;;3.88;;
48550;SDS011;34397;51.176;6.738;2023-02-08T11:44:59;5.57;;;3.38;;
48550;SDS011;34397;51.176;6.738;2023-02-08T11:50:05;3.90;;;3.35;;
48550;SDS011;34397;51.176;6.738;2023-02-08T11:52:41;5.35;;;3.47;;
48550;SDS011;34397;51.176;6.738;2023-02-08T11:55:21;4.70;;;3.58;;
48550;SDS011;34397;51.176;6.738;2023-02-08T11:57:56;7.13;;;3.50;;
48550;SDS011;34397;51.176;6.738;2023-02-08T12:00:32;6.25;;;3.63;;
48550;SDS011;34397;51.176;6.738;2023-02-08T12:03:08;4.97;;;3.72;;
48550;SDS011;34397;51.176;6.738;2023-02-08T12:05:48;5.57;;;3.58;;
48550;SDS011;34397;51.176;6.738;2023-02-08T12:08:32;7.15;;;3.40;;
48550;SDS011;34397;51.176;6.738;2023-02-08T12:11:13;5.95;;;4.18;;
48550;SDS011;34397;51.176;6.738;2023-02-08T12:13:58;6.93;;;3.90;;
48550;SDS011;34397;51.176;6.738;2023-02-08T12:16:55;8.27;;;3.97;;
48550;SDS011;34397;51.176;6.738;2023-02-08T12:23:15;4.90;;;3.20;;
48550;SDS011;34397;51.176;6.738;2023-02-08T12:26:27;3.92;;;3.40;;
48550;SDS011;34397;51.176;6.738;2023-02-08T12:29:30;5.97;;;3.70;;
48550;SDS011;34397;51.176;6.738;2023-02-08T12:32:19;5.57;;;3.47;;
48550;SDS011;34397;51.176;6.738;2023-02-08T12:38:35;4.82;;;3.05;;
48550;SDS011;34397;51.176;6.738;2023-02-08T12:41:42;7.20;;;2.60;;
48550;SDS011;34397;51.176;6.738;2023-02-08T12:44:27;3.15;;;2.67;;
48550;SDS011;34397;51.176;6.738;2023-02-08T12:47:11;3.55;;;2.80;;
48550;SDS011;34397;51.176;6.738;2023-02-08T12:50:02;3.60;;;2.40;;
48550;SDS011;34397;51.176;6.738;2023-02-08T12:52:46;3.75;;;2.72;;
48550;SDS011;34397;51.176;6.738;2023-02-08T12:55:26;4.47;;;2.95;;
48550;SDS011;34397;51.176;6.738;2023-02-08T12:58:05;7.28;;;2.85;;
48550;SDS011;34397;51.176;6.738;2023-02-08T13:00:52;3.85;;;2.75;;
48550;SDS011;34397;51.176;6.738;2023-02-08T13:03:33;4.13;;;2.75;;
48550;SDS011;34397;51.176;6.738;2023-02-08T13:06:12;3.97;;;2.90;;
48550;SDS011;34397;51.176;6.738;2023-02-08T13:08:49;3.78;;;3.08;;
48550;SDS011;34397;51.176;6.738;2023-02-08T13:11:29;4.30;;;2.88;;
48550;SDS011;34397;51.176;6.738;2023-02-08T13:14:10;3.97;;;2.97;;
48550;SDS011;34397;51.176;6.738;2023-02-08T13:16:54;4.32;;;3.15;;
48550;SDS011;34397;51.176;6.738;2023-02-08T13:19:30;4.32;;;2.72;;
48550;SDS011;34397;51.176;6.738;2023-02-08T13:22:07;4.50;;;3.17;;
48550;SDS011;34397;51.176;6.738;2023-02-08T13:24:42;5.60;;;2.95;;
48550;SDS011;34397;51.176;6.738;2023-02-08T13:27:18;3.63;;;3.00;;
48550;SDS011;34397;51.176;6.738;2023-02-08T13:29:52;4.55;;;3.05;;
48550;SDS011;34397;51.176;6.738;2023-02-08T13:35:00;5.78;;;3.17;;
48550;SDS011;34397;51.176;6.738;2023-02-08T13:37:36;4.13;;;3.00;;
48550;SDS011;34397;51.176;6.738;2023-02-08T13:42:58;3.60;;;2.70;;
48550;SDS011;34397;51.176;6.738;2023-02-08T13:45:34;4.53;;;2.85;;
48550;SDS011;34397;51.176;6.738;2023-02-08T13:48:10;3.63;;;2.60;;
48550;SDS011;34397;51.176;6.738;2023-02-08T13:50:45;4.28;;;3.10;;
48550;SDS011;34397;51.176;6.738;2023-02-08T13:54:03;10.35;;;2.80;;
48550;SDS011;34397;51.176;6.738;2023-02-08T13:56:42;4.15;;;2.92;;
48550;SDS011;34397;51.176;6.738;2023-02-08T13:59:27;5.57;;;3.20;;
48550;SDS011;34397;51.176;6.738;2023-02-08T14:02:16;3.63;;;2.80;;
48550;SDS011;34397;51.176;6.738;2023-02-08T14:08:20;3.20;;;2.38;;
48550;SDS011;34397;51.176;6.738;2023-02-08T14:11:02;4.18;;;2.65;;
48550;SDS011;34397;51.176;6.738;2023-02-08T14:13:44;2.97;;;2.45;;
48550;SDS011;34397;51.176;6.738;2023-02-08T14:16:29;4.03;;;2.60;;
48550;SDS011;34397;51.176;6.738;2023-02-08T14:19:03;5.53;;;2.67;;
48550;SDS011;34397;51.176;6.738;2023-02-08T14:21:58;3.97;;;2.40;;
48550;SDS011;34397;51.176;6.738;2023-02-08T14:24:33;5.03;;;2.17;;
48550;SDS011;34397;51.176;6.738;2023-02-08T14:27:10;4.35;;;2.92;;
48550;SDS011;34397;51.176;6.738;2023-02-08T14:29:57;4.15;;;2.55;;
48550;SDS011;34397;51.176;6.738;2023-02-08T14:32:36;3.92;;;2.67;;
48550;SDS011;34397;51.176;6.738;2023-02-08T14:35:16;5.63;;;2.53;;
48550;SDS011;34397;51.176;6.738;2023-02-08T14:41:06;2.72;;;2.13;;
48550;SDS011;34397;51.176;6.738;2023-02-08T14:43:38;3.35;;;2.40;;
48550;SDS011;34397;51.176;6.738;2023-02-08T14:49:15;5.45;;;2.28;;
48550;SDS011;34397;51.176;6.738;2023-02-08T14:51:50;3.55;;;2.40;;
48550;SDS011;34397;51.176;6.738;2023-02-08T14:54:31;3.03;;;2.40;;
48550;SDS011;34397;51.176;6.738;2023-02-08T14:57:06;3.33;;;2.13;;
48550;SDS011;34397;51.176;6.738;2023-02-08T14:59:51;3.40;;;2.35;;
48550;SDS011;34397;51.176;6.738;2023-02-08T15:02:24;3.72;;;2.30;;
48550;SDS011;34397;51.176;6.738;2023-02-08T15:05:01;3.97;;;2.63;;
48550;SDS011;34397;51.176;6.738;2023-02-08T15:07:34;3.08;;;2.35;;
48550;SDS011;34397;51.176;6.738;2023-02-08T15:10:12;4.65;;;2.70;;
48550;SDS011;34397;51.176;6.738;2023-02-08T15:12:48;3.20;;;2.28;;
48550;SDS011;34397;51.176;6.738;2023-02-08T15:15:25;4.53;;;2.40;;
48550;SDS011;34397;51.176;6.738;2023-02-08T15:18:02;3.42;;;2.35;;
48550;SDS011;34397;51.176;6.738;2023-02-08T15:20:38;3.80;;;2.60;;
48550;SDS011;34397;51.176;6.738;2023-02-08T15:23:17;6.95;;;2.72;;
48550;SDS011;34397;51.176;6.738;2023-02-08T15:25:55;6.35;;;2.90;;
48550;SDS011;34397;51.176;6.738;2023-02-08T15:28:30;4.53;;;2.22;;
48550;SDS011;34397;51.176;6.738;2023-02-08T15:31:06;4.22;;;2.63;;
48550;SDS011;34397;51.176;6.738;2023-02-08T15:33:45;2.95;;;2.10;;
48550;SDS011;34397;51.176;6.738;2023-02-08T15:36:20;4.97;;;2.28;;
48550;SDS011;34397;51.176;6.738;2023-02-08T15:38:58;2.65;;;2.03;;
48550;SDS011;34397;51.176;6.738;2023-02-08T15:41:33;4.13;;;2.55;;
48550;SDS011;34397;51.176;6.738;2023-02-08T15:44:15;3.78;;;2.33;;
48550;SDS011;34397;51.176;6.738;2023-02-08T15:46:51;7.55;;;2.40;;
48550;SDS011;34397;51.176;6.738;2023-02-08T15:49:26;5.50;;;2.65;;
48550;SDS011;34397;51.176;6.738;2023-02-08T15:52:03;5.53;;;2.58;;
48550;SDS011;34397;51.176;6.738;2023-02-08T15:54:36;3.72;;;2.58;;
48550;SDS011;34397;51.176;6.738;2023-02-08T15:57:15;5.35;;;2.58;;
48550;SDS011;34397;51.176;6.738;2023-02-08T15:59:58;3.97;;;2.50;;
48550;SDS011;34397;51.176;6.738;2023-02-08T16:02:31;4.25;;;2.30;;
48550;SDS011;34397;51.176;6.738;2023-02-08T16:05:09;3.72;;;2.40;;
48550;SDS011;34397;51.176;6.738;2023-02-08T16:07:50;5.05;;;2.97;;
48550;SDS011;34397;51.176;6.738;2023-02-08T16:10:24;8.00;;;2.22;;
48550;SDS011;34397;51.176;6.738;2023-02-08T16:13:04;4.85;;;2.65;;
48550;SDS011;34397;51.176;6.738;2023-02-08T16:15:44;6.78;;;2.45;;
48550;SDS011;34397;51.176;6.738;2023-02-08T16:18:32;5.55;;;2.70;;
48550;SDS011;34397;51.176;6.738;2023-02-08T16:21:20;4.95;;;2.70;;
48550;SDS011;34397;51.176;6.738;2023-02-08T16:24:02;3.88;;;2.20;;
48550;SDS011;34397;51.176;6.738;2023-02-08T16:26:39;5.63;;;2.28;;
48550;SDS011;34397;51.176;6.738;2023-02-08T16:29:15;5.22;;;2.47;;
48550;SDS011;34397;51.176;6.738;2023-02-08T16:31:55;5.50;;;3.30;;
48550;SDS011;34397;51.176;6.738;2023-02-08T16:34:33;8.82;;;3.92;;